createdAt,value
2022-12-09T00:09:24.187Z,1004.95
2022-12-09T00:24:24.440Z,1004.99
2022-12-09T00:39:24.404Z,1005.05
2022-12-09T00:54:24.657Z,1005.10
2022-12-09T01:09:24.847Z,1005.29
2022-12-09T01:24:24.899Z,1005.35
2022-12-09T01:39:25.272Z,1005.26
2022-12-09T01:54:25.340Z,1005.17
2022-12-09T02:09:25.743Z,1005.26
2022-12-09T02:24:25.803Z,1005.29
2022-12-09T02:39:26.114Z,1005.23
2022-12-09T02:54:26.237Z,1005.09
2022-12-09T03:09:26.608Z,1004.97
2022-12-09T03:24:26.644Z,1005.13
2022-12-09T03:39:27.383Z,1005.16
2022-12-09T03:54:27.958Z,1005.13
2022-12-09T04:09:28.174Z,1005.01
2022-12-09T04:24:28.397Z,1004.98
2022-12-09T04:39:28.583Z,1005.03
2022-12-09T04:54:29.073Z,1005.03
2022-12-09T05:09:29.528Z,1005.04
2022-12-09T05:24:30.700Z,1005.10
2022-12-09T05:39:30.481Z,1005.09
2022-12-09T05:54:30.976Z,1005.09
2022-12-09T06:09:32.287Z,1005.14
2022-12-09T06:24:33.103Z,1005.25
2022-12-09T06:39:33.220Z,1005.24
2022-12-09T06:54:33.512Z,1005.34
2022-12-09T07:09:34.181Z,1005.42
2022-12-09T07:24:34.746Z,1005.50
2022-12-09T07:39:34.906Z,1005.57
2022-12-09T07:54:35.112Z,1005.60
2022-12-09T08:09:35.824Z,1005.68
2022-12-09T08:24:36.847Z,1005.67
2022-12-09T08:39:37.612Z,1005.73
2022-12-09T08:54:38.160Z,1005.68
2022-12-09T09:09:39.523Z,1005.82
2022-12-09T09:24:40.384Z,1005.93
2022-12-09T09:39:40.603Z,1005.90
2022-12-09T09:54:41.676Z,1005.87
2022-12-09T10:09:42.383Z,1005.82
2022-12-09T10:24:43.159Z,1005.77
2022-12-09T10:39:43.339Z,1005.67
2022-12-09T10:54:43.532Z,1005.56
2022-12-09T11:09:44.774Z,1005.60
2022-12-09T11:24:45.829Z,1005.41
2022-12-09T11:39:46.547Z,1005.39
2022-12-09T11:54:47.059Z,1005.33
2022-12-09T12:09:47.695Z,1005.25
2022-12-09T12:24:48.348Z,1005.14
2022-12-09T12:39:48.926Z,1005.09
2022-12-09T12:54:49.535Z,1005.00
2022-12-09T13:09:50.181Z,1004.90
2022-12-09T13:24:54.117Z,1004.87
2022-12-09T13:39:56.172Z,1004.90
2022-12-09T13:54:56.276Z,1004.98
2022-12-09T14:09:56.597Z,1005.06
2022-12-09T14:24:57.137Z,1005.25
2022-12-09T14:39:57.473Z,1005.22
2022-12-09T14:54:57.429Z,1005.10
2022-12-09T15:09:57.572Z,1005.18
2022-12-09T15:24:57.809Z,1005.14
2022-12-09T15:39:58.040Z,1005.34
2022-12-09T15:54:58.382Z,1005.34
2022-12-09T16:09:58.251Z,1005.39
2022-12-09T16:25:14.330Z,1005.42
2022-12-09T16:40:03.590Z,1005.42
2022-12-09T16:55:03.808Z,1005.56
2022-12-09T17:10:04.471Z,1005.39
2022-12-09T17:25:05.537Z,1005.35
2022-12-09T17:40:06.328Z,1005.38
2022-12-09T17:55:06.839Z,1005.42
2022-12-09T18:10:07.996Z,1005.57
2022-12-09T18:25:08.808Z,1005.51
2022-12-09T18:40:09.191Z,1005.73
2022-12-09T18:55:09.196Z,1005.71
2022-12-09T19:10:09.693Z,1005.65
2022-12-09T19:25:09.613Z,1005.83
2022-12-09T19:40:10.294Z,1005.78
2022-12-09T19:55:11.058Z,1005.82
2022-12-09T20:10:11.333Z,1005.97
2022-12-09T20:25:11.500Z,1005.95
2022-12-09T20:40:11.821Z,1006.03
2022-12-09T20:55:11.988Z,1006.19
2022-12-09T21:10:12.753Z,1006.29
2022-12-09T21:25:12.987Z,1006.23
2022-12-09T21:40:13.194Z,1006.21
2022-12-09T21:55:13.912Z,1006.29
2022-12-09T22:10:14.619Z,1006.33
2022-12-09T22:25:14.925Z,1006.24
2022-12-09T22:40:15.249Z,1006.24
2022-12-09T22:55:15.530Z,1006.19
2022-12-09T23:10:15.856Z,1006.35
2022-12-09T23:25:17.851Z,1006.30
2022-12-09T23:40:18.526Z,1006.21
2022-12-09T23:55:18.711Z,1006.25
